Time;durP1;ratioP1;P1;durP2;ratioP2;P2;SDS_P1;SDS_P2;PMS_P1;PMS_P2;Temp;Humidity;BMP_temperature;BMP_pressure;BME280_temperature;BME280_humidity;BME280_pressure;Samples;Min_cycle;Max_cycle;Signal;HPM_P1;HPM_P2
2021/03/31 00:00:44;;;;;;;60.03;6.90;;;7.90;1.00;;;;;;5091421;28;20993;-66
2021/03/31 00:03:13;;;;;;;66.05;7.40;;;7.90;1.00;;;;;;5091311;28;20593;-66
2021/03/31 00:05:40;;;;;;;62.50;7.20;;;7.80;1.00;;;;;;5091079;28;20211;-66
2021/03/31 00:08:07;;;;;;;62.47;7.23;;;7.80;1.00;;;;;;5091421;28;20463;-66
2021/03/31 00:10:37;;;;;;;61.80;6.80;;;7.70;1.00;;;;;;5091154;28;20447;-66
2021/03/31 00:13:03;;;;;;;64.40;8.40;;;7.70;1.00;;;;;;5091381;28;20444;-66
2021/03/31 00:15:31;;;;;;;62.77;7.00;;;7.70;1.00;;;;;;5091283;28;20300;-65
2021/03/31 00:17:58;;;;;;;62.10;6.88;;;7.60;1.00;;;;;;5091277;28;20557;-66
2021/03/31 00:20:24;;;;;;;63.20;7.63;;;7.60;1.00;;;;;;5091031;28;20237;-66
2021/03/31 00:22:51;;;;;;;68.20;8.32;;;7.60;1.00;;;;;;5091341;28;20446;-66
2021/03/31 00:25:18;;;;;;;61.78;6.72;;;7.50;1.00;;;;;;5093223;28;20216;-66
2021/03/31 00:27:45;;;;;;;61.60;7.23;;;7.50;1.00;;;;;;5094984;28;20746;-67
2021/03/31 00:30:15;;;;;;;62.57;7.60;;;7.50;1.00;;;;;;5095110;28;21105;-67
2021/03/31 00:32:43;;;;;;;62.33;7.10;;;7.40;1.00;;;;;;5094767;28;20454;-65
2021/03/31 00:35:10;;;;;;;63.03;7.95;;;7.40;1.00;;;;;;5095019;28;20465;-66
2021/03/31 00:37:37;;;;;;;61.40;6.95;;;7.40;1.00;;;;;;5095027;28;20612;-66
2021/03/31 00:40:07;;;;;;;63.58;6.45;;;7.30;1.00;;;;;;5094773;28;20210;-66
2021/03/31 00:42:34;;;;;;;62.78;7.22;;;7.30;1.00;;;;;;5095113;28;20212;-67
2021/03/31 00:45:00;;;;;;;62.60;7.40;;;7.20;1.00;;;;;;5092654;28;20233;-67
2021/03/31 00:47:27;;;;;;;69.50;6.95;;;7.20;1.00;;;;;;5094381;28;20300;-67
2021/03/31 00:49:54;;;;;;;61.10;7.00;;;7.10;1.00;;;;;;5094435;28;20664;-66
2021/03/31 00:52:21;;;;;;;65.10;8.00;;;7.10;1.00;;;;;;5091065;28;20721;-66
2021/03/31 00:54:48;;;;;;;62.53;7.40;;;7.00;1.00;;;;;;5094451;28;21088;-66
2021/03/31 00:57:18;;;;;;;64.43;6.70;;;7.00;1.00;;;;;;5094476;28;20296;-66
2021/03/31 00:59:45;;;;;;;62.92;7.97;;;6.90;1.00;;;;;;5093004;28;20211;-66
2021/03/31 01:02:11;;;;;;;62.50;7.40;;;6.90;1.00;;;;;;5094298;28;20652;-66
2021/03/31 01:04:38;;;;;;;63.15;8.10;;;6.90;1.00;;;;;;5094530;28;20204;-66
2021/03/31 01:07:05;;;;;;;68.22;7.82;;;6.90;1.00;;;;;;5074340;28;20611;-66
2021/03/31 01:09:32;;;;;;;61.97;7.47;;;6.90;1.00;;;;;;5081934;28;20231;-66
2021/03/31 01:12:10;;;;;;;61.55;7.80;;;6.90;1.00;;;;;;5094332;28;20249;-65
2021/03/31 01:14:49;;;;;;;63.80;7.63;;;6.80;1.00;;;;;;5094495;28;20188;-66
2021/03/31 01:17:28;;;;;;;61.47;6.97;;;6.70;1.00;;;;;;5094350;28;20238;-67
2021/03/31 01:20:20;;;;;;;60.92;6.97;;;6.60;1.00;;;;;;5094253;28;20215;-66
2021/03/31 01:23:31;;;;;;;62.17;7.50;;;6.60;1.00;;;;;;5081355;28;20337;-66
2021/03/31 01:26:02;;;;;;;67.40;8.10;;;6.60;1.00;;;;;;5094837;28;20204;-66
2021/03/31 01:29:09;;;;;;;60.15;6.72;;;6.50;1.00;;;;;;5094406;28;20666;-66
2021/03/31 01:31:45;;;;;;;62.78;7.85;;;6.50;1.00;;;;;;5083982;28;20743;-66
2021/03/31 01:34:37;;;;;;;62.00;7.75;;;6.50;1.00;;;;;;5093761;28;20306;-66
2021/03/31 01:37:12;;;;;;;62.00;7.53;;;6.50;1.00;;;;;;5093401;28;20208;-67
2021/03/31 01:39:40;;;;;;;63.67;8.70;;;6.50;1.00;;;;;;5093766;28;20224;-65
2021/03/31 01:42:09;;;;;;;71.57;7.80;;;6.50;1.00;;;;;;5093552;28;20227;-66
2021/03/31 01:44:37;;;;;;;64.45;7.93;;;6.50;1.00;;;;;;5094014;28;20204;-66
2021/03/31 01:47:05;;;;;;;63.35;7.82;;;6.40;1.00;;;;;;5093770;28;20291;-66
2021/03/31 01:49:32;;;;;;;64.85;7.50;;;6.40;1.00;;;;;;5093460;28;20778;-65
2021/03/31 01:52:01;;;;;;;64.07;7.55;;;6.40;1.00;;;;;;5093372;28;20292;-66
2021/03/31 01:54:30;;;;;;;64.13;8.07;;;6.30;1.00;;;;;;5093990;28;20295;-66
2021/03/31 01:56:57;;;;;;;61.58;7.25;;;6.30;1.00;;;;;;5093495;28;20204;-66
2021/03/31 01:59:24;;;;;;;63.63;8.00;;;6.30;1.00;;;;;;5093663;28;20311;-66
2021/03/31 02:01:52;;;;;;;64.72;7.75;;;6.30;1.00;;;;;;5093323;28;20771;-66
2021/03/31 02:04:19;;;;;;;65.55;7.65;;;6.30;1.00;;;;;;5093434;28;20200;-66
2021/03/31 02:06:46;;;;;;;62.70;7.68;;;6.30;1.00;;;;;;5092973;28;20644;-66
2021/03/31 02:09:16;;;;;;;63.50;7.88;;;6.40;1.00;;;;;;5092983;28;20228;-66
2021/03/31 02:11:44;;;;;;;62.10;7.38;;;6.40;1.00;;;;;;5093328;28;20211;-66
2021/03/31 02:14:14;;;;;;;63.97;7.88;;;6.40;1.00;;;;;;5093122;28;20291;-66
2021/03/31 02:16:42;;;;;;;61.53;7.85;;;6.30;1.00;;;;;;5093306;28;20216;-66
2021/03/31 02:19:12;;;;;;;60.90;6.65;;;6.30;1.00;;;;;;5092907;28;20756;-66
2021/03/31 02:21:40;;;;;;;64.45;7.18;;;6.30;1.00;;;;;;5093315;28;20220;-66
2021/03/31 02:24:08;;;;;;;68.93;8.05;;;6.30;1.00;;;;;;5093271;28;20281;-66
2021/03/31 02:26:35;;;;;;;61.90;7.13;;;6.20;1.00;;;;;;5082704;28;20292;-66
2021/03/31 02:29:02;;;;;;;63.17;7.70;;;6.20;1.00;;;;;;5092380;28;20889;-67
2021/03/31 02:31:28;;;;;;;64.32;8.35;;;6.10;1.00;;;;;;5092651;28;20207;-65
2021/03/31 02:33:56;;;;;;;62.58;7.03;;;6.10;1.00;;;;;;5092621;28;20219;-65
2021/03/31 02:36:23;;;;;;;62.65;7.57;;;6.10;1.00;;;;;;5092898;28;20204;-66
2021/03/31 02:38:50;;;;;;;62.05;7.60;;;6.10;1.00;;;;;;5092649;28;20691;-66
2021/03/31 02:41:18;;;;;;;62.08;8.02;;;6.10;1.00;;;;;;5092812;28;20248;-66
2021/03/31 02:43:49;;;;;;;63.30;7.38;;;6.10;1.00;;;;;;5092710;28;20217;-66
2021/03/31 02:46:19;;;;;;;62.25;6.82;;;6.10;1.00;;;;;;5088387;28;20630;-66
2021/03/31 02:48:49;;;;;;;62.58;7.95;;;6.10;1.00;;;;;;5082033;28;20229;-66
2021/03/31 02:51:16;;;;;;;62.72;7.40;;;6.00;1.00;;;;;;5092439;28;20282;-66
2021/03/31 02:53:43;;;;;;;63.38;8.07;;;5.90;1.00;;;;;;5091189;28;20291;-66
2021/03/31 02:56:13;;;;;;;65.30;6.85;;;5.90;1.00;;;;;;5092332;28;20204;-67
2021/03/31 02:58:40;;;;;;;61.33;7.28;;;5.90;1.00;;;;;;5091985;28;20319;-66
2021/03/31 03:01:08;;;;;;;61.78;7.85;;;5.80;1.00;;;;;;5088725;28;20234;-67
2021/03/31 03:03:35;;;;;;;63.70;7.60;;;5.80;1.00;;;;;;5092023;28;20704;-67
2021/03/31 03:06:02;;;;;;;62.10;7.38;;;5.70;1.00;;;;;;5092149;28;20242;-67
2021/03/31 03:08:29;;;;;;;64.72;7.65;;;5.70;1.00;;;;;;5091993;28;20264;-65
2021/03/31 03:11:00;;;;;;;63.15;7.30;;;5.70;1.00;;;;;;5091955;28;20279;-65
2021/03/31 03:13:28;;;;;;;64.30;7.57;;;5.60;1.00;;;;;;5091818;28;20296;-66
2021/03/31 03:15:54;;;;;;;62.63;8.32;;;5.60;1.00;;;;;;5092136;28;20211;-65
2021/03/31 03:18:22;;;;;;;62.25;7.53;;;5.60;1.00;;;;;;5092047;28;20235;-66
2021/03/31 03:20:49;;;;;;;63.92;7.70;;;5.60;1.00;;;;;;5091784;28;20230;-64
2021/03/31 03:23:17;;;;;;;63.70;7.95;;;5.60;1.00;;;;;;5092079;28;20205;-66
2021/03/31 03:25:47;;;;;;;60.78;7.68;;;5.50;1.00;;;;;;5091761;28;20291;-66
2021/03/31 03:28:18;;;;;;;62.40;7.70;;;5.50;1.00;;;;;;5091846;28;20659;-66
2021/03/31 03:30:45;;;;;;;61.40;6.90;;;5.50;1.00;;;;;;5092003;28;20249;-66
2021/03/31 03:33:12;;;;;;;62.22;8.50;;;5.50;1.00;;;;;;5091643;28;20212;-66
2021/03/31 03:35:40;;;;;;;60.80;7.38;;;5.50;1.00;;;;;;5091726;28;20295;-66
2021/03/31 03:38:06;;;;;;;62.45;7.75;;;5.50;1.00;;;;;;5091539;28;20311;-66
2021/03/31 03:40:33;;;;;;;60.85;7.05;;;5.50;1.00;;;;;;5091543;28;20298;-65
2021/03/31 03:42:59;;;;;;;62.97;8.40;;;5.40;1.00;;;;;;5091588;28;20200;-66
2021/03/31 03:45:26;;;;;;;62.85;7.97;;;5.40;1.00;;;;;;5091638;28;20770;-66
2021/03/31 03:47:53;;;;;;;68.93;7.80;;;5.40;1.00;;;;;;5091669;28;20224;-65
2021/03/31 03:50:20;;;;;;;63.95;8.70;;;5.40;1.00;;;;;;5091601;28;20205;-65
2021/03/31 03:52:50;;;;;;;60.63;7.55;;;5.40;1.00;;;;;;5091372;28;20292;-66
2021/03/31 03:55:18;;;;;;;65.32;7.78;;;5.40;1.00;;;;;;5091839;28;20619;-66
2021/03/31 03:57:45;;;;;;;63.33;7.40;;;5.40;1.00;;;;;;5091751;28;20674;-66
2021/03/31 04:00:13;;;;;;;67.55;8.38;;;5.30;1.00;;;;;;5095174;28;20235;-67
2021/03/31 04:02:40;;;;;;;64.35;8.57;;;5.20;1.00;;;;;;5095513;28;20259;-66
2021/03/31 04:05:08;;;;;;;64.28;8.73;;;5.20;1.00;;;;;;5095278;28;20744;-66
2021/03/31 04:07:34;;;;;;;65.75;7.85;;;5.20;1.00;;;;;;5095605;28;20628;-65
2021/03/31 04:10:04;;;;;;;62.08;8.45;;;5.10;1.00;;;;;;5095359;28;20257;-66
2021/03/31 04:12:31;;;;;;;64.80;8.32;;;5.10;1.00;;;;;;5095424;28;20288;-66
2021/03/31 04:14:58;;;;;;;61.50;7.47;;;5.10;1.00;;;;;;5095430;28;20204;-66
2021/03/31 04:17:26;;;;;;;65.47;8.80;;;5.10;1.00;;;;;;5095465;28;20267;-66
2021/03/31 04:19:54;;;;;;;62.42;8.13;;;5.10;1.00;;;;;;5095034;28;20204;-65
2021/03/31 04:22:21;;;;;;;64.18;8.35;;;5.10;1.00;;;;;;5095141;28;20315;-66
2021/03/31 04:24:47;;;;;;;63.97;7.88;;;5.10;1.00;;;;;;5095473;28;20298;-66
2021/03/31 04:27:17;;;;;;;62.38;8.52;;;5.10;1.00;;;;;;5095358;28;20280;-66
2021/03/31 04:29:44;;;;;;;62.92;9.23;;;5.10;1.00;;;;;;5094952;28;20295;-66
2021/03/31 04:32:15;;;;;;;61.75;9.02;;;5.10;1.00;;;;;;5095106;28;20353;-66
2021/03/31 04:34:42;;;;;;;65.20;9.43;;;5.10;1.00;;;;;;5095261;28;20810;-66
2021/03/31 04:37:09;;;;;;;64.18;7.82;;;5.10;1.00;;;;;;5095487;28;20295;-67
2021/03/31 04:39:37;;;;;;;61.83;8.73;;;5.10;1.00;;;;;;5094952;28;20229;-67
2021/03/31 04:42:04;;;;;;;66.25;8.55;;;5.10;1.00;;;;;;5095006;28;20224;-66
2021/03/31 04:44:31;;;;;;;62.28;7.30;;;5.00;1.00;;;;;;5095154;28;20295;-65
2021/03/31 04:46:58;;;;;;;67.45;8.77;;;5.00;1.00;;;;;;5092483;28;20239;-66
2021/03/31 04:49:24;;;;;;;63.80;7.95;;;5.00;1.00;;;;;;5094522;28;20327;-66
2021/03/31 04:51:50;;;;;;;62.40;7.82;;;5.00;1.00;;;;;;5094624;28;20284;-65
2021/03/31 04:54:17;;;;;;;61.83;8.05;;;5.00;1.00;;;;;;5094553;28;20204;-66
2021/03/31 04:56:43;;;;;;;66.72;8.20;;;5.00;1.00;;;;;;5094620;28;20287;-66
2021/03/31 04:59:09;;;;;;;64.03;8.45;;;5.00;1.00;;;;;;5092471;28;20221;-66
2021/03/31 05:01:36;;;;;;;62.58;8.50;;;5.10;1.00;;;;;;5090107;28;20252;-66
2021/03/31 05:04:03;;;;;;;65.63;8.13;;;5.10;1.00;;;;;;5094346;28;20582;-66
2021/03/31 05:06:29;;;;;;;63.42;8.25;;;5.20;1.00;;;;;;5094447;28;20211;-66
2021/03/31 05:08:56;;;;;;;63.45;8.45;;;5.20;1.00;;;;;;5094210;28;20252;-66
2021/03/31 05:11:22;;;;;;;63.72;8.63;;;5.20;1.00;;;;;;5093430;28;20253;-66
2021/03/31 05:13:49;;;;;;;64.63;8.35;;;5.30;1.00;;;;;;5094145;28;20601;-66
2021/03/31 05:16:15;;;;;;;64.15;8.10;;;5.20;1.00;;;;;;5094161;28;20566;-66
2021/03/31 05:18:42;;;;;;;66.53;9.50;;;5.20;1.00;;;;;;5094225;28;20594;-66
2021/03/31 05:21:08;;;;;;;64.28;8.27;;;5.20;1.00;;;;;;5094327;28;20220;-66
2021/03/31 05:23:35;;;;;;;67.03;9.07;;;5.20;1.00;;;;;;5093816;28;20212;-66
2021/03/31 05:26:01;;;;;;;65.60;8.63;;;5.20;1.00;;;;;;5094039;28;20300;-67
2021/03/31 05:28:27;;;;;;;66.65;9.00;;;5.20;1.00;;;;;;5093892;28;20250;-67
2021/03/31 05:30:54;;;;;;;64.90;8.50;;;5.20;1.00;;;;;;5093976;28;20239;-67
2021/03/31 05:33:20;;;;;;;68.00;10.98;;;5.20;1.00;;;;;;5093543;28;20250;-66
2021/03/31 05:35:47;;;;;;;61.88;8.13;;;5.10;1.00;;;;;;5094021;28;20299;-66
2021/03/31 05:38:14;;;;;;;62.63;9.00;;;5.20;1.00;;;;;;5092002;28;20571;-66
2021/03/31 05:40:40;;;;;;;69.97;9.38;;;5.20;1.00;;;;;;5088764;28;20201;-66
2021/03/31 05:43:07;;;;;;;66.15;9.25;;;5.20;1.00;;;;;;5086610;28;20265;-66
2021/03/31 05:45:34;;;;;;;65.95;9.63;;;5.20;1.00;;;;;;5087876;28;20287;-66
2021/03/31 05:48:00;;;;;;;70.63;9.20;;;5.20;1.00;;;;;;5088248;28;20599;-66
2021/03/31 05:50:27;;;;;;;66.57;9.43;;;5.30;1.00;;;;;;5088369;28;20212;-66
2021/03/31 05:52:55;;;;;;;66.40;9.02;;;5.30;1.00;;;;;;5093896;28;20200;-67
2021/03/31 05:55:21;;;;;;;66.40;9.85;;;5.40;1.00;;;;;;5090634;28;20292;-65
2021/03/31 05:57:48;;;;;;;63.25;8.70;;;5.40;1.00;;;;;;5089326;28;20704;-65
2021/03/31 06:00:17;;;;;;;64.00;8.38;;;5.40;1.00;;;;;;5087052;28;20313;-67
2021/03/31 06:02:45;;;;;;;65.45;9.10;;;5.40;1.00;;;;;;5084072;28;20260;-66
2021/03/31 06:05:13;;;;;;;63.92;8.40;;;5.50;1.00;;;;;;5080637;28;20208;-66
2021/03/31 06:07:41;;;;;;;63.80;9.27;;;5.50;1.00;;;;;;5084135;28;20349;-65
2021/03/31 06:10:14;;;;;;;64.85;9.52;;;5.60;1.00;;;;;;5087095;28;20246;-66
2021/03/31 06:12:42;;;;;;;67.30;8.40;;;5.70;1.00;;;;;;5089900;28;20627;-66
2021/03/31 06:15:16;;;;;;;66.28;9.38;;;5.70;1.00;;;;;;5084011;28;20570;-66
2021/03/31 06:17:45;;;;;;;68.65;9.20;;;5.80;1.00;;;;;;5085492;28;20599;-66
2021/03/31 06:20:13;;;;;;;63.20;9.45;;;5.90;1.00;;;;;;5085954;28;20205;-66
